createdAt,value
2022-08-20T00:00:34.582Z,99772.00
2022-08-20T00:03:17.430Z,99772.78
2022-08-20T00:05:52.868Z,99771.50
2022-08-20T00:08:24.486Z,99762.69
2022-08-20T00:10:55.647Z,99774.03
2022-08-20T00:13:25.706Z,99771.03
2022-08-20T00:15:54.021Z,99778.00
2022-08-20T00:18:22.611Z,99768.72
2022-08-20T00:20:52.565Z,99778.13
2022-08-20T00:23:20.532Z,99768.78
2022-08-20T00:25:47.952Z,99783.53
2022-08-20T00:28:15.861Z,99782.19
2022-08-20T00:30:45.575Z,99780.22
2022-08-20T00:33:17.223Z,99772.13
2022-08-20T00:35:48.796Z,99769.06
2022-08-20T00:38:16.541Z,99768.41
2022-08-20T00:40:57.100Z,99755.41
2022-08-20T00:43:39.009Z,99756.53
2022-08-20T00:46:11.274Z,99742.91
2022-08-20T00:48:41.488Z,99763.81
2022-08-20T00:51:15.229Z,99761.91
2022-08-20T00:53:43.424Z,99783.22
2022-08-20T00:56:12.728Z,99783.72
2022-08-20T00:58:42.389Z,99772.69
2022-08-20T01:01:09.872Z,99783.00
2022-08-20T01:03:37.269Z,99786.03
2022-08-20T01:06:04.802Z,99796.09
2022-08-20T01:08:32.422Z,99775.63
2022-08-20T01:11:20.126Z,99765.97
2022-08-20T01:13:48.582Z,99755.66
2022-08-20T01:16:25.294Z,99752.03
2022-08-20T01:18:57.753Z,99751.38
2022-08-20T01:21:33.744Z,99736.22
2022-08-20T01:24:12.590Z,99738.53
2022-08-20T01:26:43.052Z,99754.91
2022-08-20T01:29:17.846Z,99734.31
2022-08-20T01:31:45.686Z,99742.44
2022-08-20T01:34:16.117Z,99757.03
2022-08-20T01:36:53.314Z,99735.66
2022-08-20T01:39:28.048Z,99739.78
2022-08-20T01:42:02.735Z,99747.69
2022-08-20T01:44:31.606Z,99735.41
2022-08-20T01:47:28.444Z,99741.88
2022-08-20T01:50:00.007Z,99756.41
2022-08-20T01:52:46.606Z,99758.31
2022-08-20T01:55:14.236Z,99757.56
2022-08-20T01:57:41.642Z,99748.56
2022-08-20T02:00:19.097Z,99760.72
2022-08-20T02:02:49.505Z,99769.72
2022-08-20T02:05:17.235Z,99764.63
2022-08-20T02:07:44.658Z,99774.41
2022-08-20T02:10:15.433Z,99763.97
2022-08-20T02:12:42.731Z,99761.66
2022-08-20T02:15:11.089Z,99780.47
2022-08-20T02:17:41.099Z,99780.88
2022-08-20T02:20:17.501Z,99781.38
2022-08-20T02:22:56.986Z,99778.19
2022-08-20T02:25:28.223Z,99784.91
2022-08-20T02:28:00.952Z,99785.19
2022-08-20T02:30:33.491Z,99778.00
2022-08-20T02:33:03.321Z,99763.03
2022-08-20T02:35:32.456Z,99767.13
2022-08-20T02:38:01.759Z,99768.06
2022-08-20T02:40:31.436Z,99778.56
2022-08-20T02:43:00.649Z,99784.41
2022-08-20T02:45:31.609Z,99781.31
2022-08-20T02:47:59.432Z,99793.69
2022-08-20T02:50:27.181Z,99808.16
2022-08-20T02:52:54.864Z,99804.47
2022-08-20T02:55:27.321Z,99809.09
2022-08-20T02:57:57.647Z,99804.59
2022-08-20T03:00:27.339Z,99801.03
2022-08-20T03:02:54.567Z,99816.06
2022-08-20T03:05:22.447Z,99808.75
2022-08-20T03:07:56.969Z,99809.06
2022-08-20T03:10:27.046Z,99808.59
2022-08-20T03:12:54.337Z,99815.84
2022-08-20T03:15:21.934Z,99816.81
2022-08-20T03:17:49.416Z,99817.72
2022-08-20T03:20:16.918Z,99820.59
2022-08-20T03:22:44.323Z,99817.59
2022-08-20T03:25:12.507Z,99810.28
2022-08-20T03:27:39.768Z,99809.19
2022-08-20T03:30:10.222Z,99828.81
2022-08-20T03:32:38.879Z,99838.38
2022-08-20T03:35:09.317Z,99836.34
2022-08-20T03:37:37.653Z,99833.25
2022-08-20T03:40:16.410Z,99846.63
2022-08-20T03:42:44.086Z,99846.66
2022-08-20T03:45:14.283Z,99847.59
2022-08-20T03:47:44.400Z,99855.84
2022-08-20T03:50:22.655Z,99854.72
2022-08-20T03:52:52.678Z,99840.91
2022-08-20T03:55:21.614Z,99852.47
2022-08-20T03:57:55.317Z,99840.69
2022-08-20T04:00:39.674Z,99852.28
2022-08-20T04:03:08.521Z,99872.28
2022-08-20T04:05:40.729Z,99866.44
2022-08-20T04:08:24.526Z,99862.91
2022-08-20T04:10:52.365Z,99848.56
2022-08-20T04:13:21.590Z,99870.28
2022-08-20T04:15:55.261Z,99855.16
2022-08-20T04:18:25.809Z,99861.69
2022-08-20T04:20:54.121Z,99844.78
2022-08-20T04:23:22.665Z,99856.25
2022-08-20T04:25:50.176Z,99861.69
2022-08-20T04:28:27.425Z,99887.22
2022-08-20T04:30:57.131Z,99884.47
2022-08-20T04:33:33.458Z,99875.16
2022-08-20T04:36:02.881Z,99889.53
2022-08-20T04:38:47.859Z,99890.00
2022-08-20T04:41:22.872Z,99882.34
2022-08-20T04:43:54.169Z,99870.25
2022-08-20T04:46:26.047Z,99864.91
2022-08-20T04:48:53.829Z,99869.66
2022-08-20T04:51:23.397Z,99864.16
2022-08-20T04:53:54.276Z,99856.22
2022-08-20T04:56:28.455Z,99868.50
2022-08-20T04:58:58.667Z,99858.31
2022-08-20T05:01:26.694Z,99855.22
2022-08-20T05:03:55.165Z,99858.47
2022-08-20T05:06:25.978Z,99859.22
2022-08-20T05:08:54.977Z,99875.19
2022-08-20T05:11:35.524Z,99863.25
2022-08-20T05:14:06.301Z,99872.63
2022-08-20T05:16:40.673Z,99855.22
2022-08-20T05:19:11.598Z,99858.63
2022-08-20T05:21:39.553Z,99877.34
2022-08-20T05:24:07.345Z,99859.88
2022-08-20T05:26:35.448Z,99854.09
2022-08-20T05:29:05.435Z,99858.16
2022-08-20T05:31:33.851Z,99867.38
2022-08-20T05:34:12.121Z,99855.22
2022-08-20T05:36:49.238Z,99852.38
2022-08-20T05:39:20.432Z,99849.91
2022-08-20T05:41:49.948Z,99867.09
2022-08-20T05:44:19.145Z,99844.91
2022-08-20T05:46:47.864Z,99855.50
2022-08-20T05:49:20.205Z,99860.19
2022-08-20T05:51:49.521Z,99864.56
2022-08-20T05:54:16.895Z,99871.78
2022-08-20T05:56:44.115Z,99873.97
2022-08-20T05:59:12.680Z,99870.63
2022-08-20T06:01:41.110Z,99862.84
2022-08-20T06:04:24.977Z,99868.88
2022-08-20T06:07:02.917Z,99868.72
2022-08-20T06:09:32.600Z,99853.91
2022-08-20T06:12:06.198Z,99859.28
2022-08-20T06:14:34.295Z,99862.56
2022-08-20T06:17:08.980Z,99850.59
2022-08-20T06:19:38.000Z,99849.75
2022-08-20T06:22:08.715Z,99864.75
2022-08-20T06:24:47.884Z,99862.47
2022-08-20T06:27:16.691Z,99861.13
2022-08-20T06:29:44.056Z,99873.13
2022-08-20T06:32:11.544Z,99879.38
2022-08-20T06:34:49.787Z,99872.53
2022-08-20T06:37:23.393Z,99886.13
2022-08-20T06:40:06.984Z,99884.97
2022-08-20T06:42:34.631Z,99880.38
2022-08-20T06:45:05.891Z,99873.81
2022-08-20T06:47:34.359Z,99876.78
2022-08-20T06:50:01.603Z,99871.97
2022-08-20T06:52:52.658Z,99874.78
2022-08-20T06:55:17.538Z,99883.59
2022-08-20T06:57:46.475Z,99883.72
2022-08-20T07:00:19.612Z,99878.13
2022-08-20T07:02:48.154Z,99886.44
2022-08-20T07:05:16.474Z,99898.09
2022-08-20T07:07:51.188Z,99883.97
2022-08-20T07:10:20.650Z,99886.41
2022-08-20T07:12:50.655Z,99900.22
2022-08-20T07:15:20.519Z,99898.34
2022-08-20T07:17:55.527Z,99895.09
2022-08-20T07:20:27.042Z,99903.91
2022-08-20T07:22:54.546Z,99903.25
2022-08-20T07:25:22.277Z,99909.06
2022-08-20T07:27:50.694Z,99907.28
2022-08-20T07:30:55.836Z,99899.88
2022-08-20T07:33:28.986Z,99896.44
2022-08-20T07:35:58.432Z,99910.84
2022-08-20T07:38:27.562Z,99915.84
2022-08-20T07:40:58.336Z,99891.59
2022-08-20T07:43:26.001Z,99903.94
2022-08-20T07:45:56.484Z,99909.06
2022-08-20T07:48:31.976Z,99920.50
2022-08-20T07:51:03.749Z,99923.63
2022-08-20T07:53:36.453Z,99934.00
2022-08-20T07:56:11.481Z,99929.03
2022-08-20T07:58:44.943Z,99935.28
2022-08-20T08:01:12.546Z,99938.72
2022-08-20T08:03:49.200Z,99941.59
2022-08-20T08:06:30.462Z,99939.38
2022-08-20T08:09:07.036Z,99940.69
2022-08-20T08:11:40.036Z,99949.75
2022-08-20T08:14:09.927Z,99956.84
2022-08-20T08:16:38.199Z,99952.63
2022-08-20T08:19:09.250Z,99963.75
2022-08-20T08:21:36.576Z,99956.09
2022-08-20T08:24:04.519Z,99957.41
2022-08-20T08:26:31.769Z,99961.41
2022-08-20T08:28:59.103Z,99960.31
2022-08-20T08:31:27.280Z,99942.81
2022-08-20T08:33:55.654Z,99952.25
2022-08-20T08:36:23.248Z,99956.31
2022-08-20T08:38:51.076Z,99944.13
2022-08-20T08:41:32.362Z,99949.91
2022-08-20T08:44:11.271Z,99953.13
2022-08-20T08:46:45.874Z,99949.81
2022-08-20T08:49:18.415Z,99957.16
2022-08-20T08:51:50.284Z,99941.25
2022-08-20T08:54:22.142Z,99944.72
2022-08-20T08:56:50.709Z,99941.88
2022-08-20T08:59:20.184Z,99927.06
2022-08-20T09:01:57.228Z,99946.00
2022-08-20T09:04:36.300Z,99943.41
2022-08-20T09:07:06.652Z,99936.09
2022-08-20T09:09:38.091Z,99945.91
2022-08-20T09:12:12.003Z,99943.41
2022-08-20T09:14:39.766Z,99932.06
2022-08-20T09:17:07.543Z,99927.69
2022-08-20T09:19:34.867Z,99946.59
2022-08-20T09:22:11.738Z,99944.78
2022-08-20T09:24:39.786Z,99947.34
2022-08-20T09:27:07.425Z,99932.50
2022-08-20T09:29:35.100Z,99946.41
2022-08-20T09:32:21.042Z,99929.94
2022-08-20T09:34:55.923Z,99940.69
2022-08-20T09:37:35.098Z,99939.91
2022-08-20T09:40:07.945Z,99940.09
2022-08-20T09:42:41.060Z,99929.91
2022-08-20T09:45:11.048Z,99945.56
2022-08-20T09:47:54.923Z,99939.63
2022-08-20T09:50:29.917Z,99919.19
2022-08-20T09:53:01.094Z,99926.00
2022-08-20T09:55:35.177Z,99937.44
2022-08-20T09:58:47.340Z,99939.94
2022-08-20T10:01:17.178Z,99940.25
2022-08-20T10:03:48.137Z,99931.91
2022-08-20T10:06:17.937Z,99942.44
2022-08-20T10:08:45.401Z,99935.72
2022-08-20T10:11:13.075Z,99937.22
2022-08-20T10:13:40.822Z,99929.78
2022-08-20T10:16:08.045Z,99915.81
2022-08-20T10:18:36.282Z,99933.06
2022-08-20T10:21:09.167Z,99919.38
2022-08-20T10:23:36.425Z,99930.28
2022-08-20T10:26:04.445Z,99918.03
2022-08-20T10:28:31.854Z,99934.72
2022-08-20T10:30:59.019Z,99917.34
2022-08-20T10:33:26.346Z,99939.03
2022-08-20T10:35:59.737Z,99938.44
2022-08-20T10:38:27.189Z,99930.97
2022-08-20T10:40:55.189Z,99933.78
2022-08-20T10:43:22.713Z,99922.75
2022-08-20T10:45:51.198Z,99930.88
2022-08-20T10:48:21.516Z,99919.84
2022-08-20T10:50:50.297Z,99915.75
2022-08-20T10:53:18.263Z,99921.53
2022-08-20T10:55:45.916Z,99918.53
2022-08-20T10:58:13.373Z,99913.47
2022-08-20T11:00:41.282Z,99925.53
2022-08-20T11:03:08.827Z,99924.16
2022-08-20T11:05:36.063Z,99933.78
2022-08-20T11:08:04.890Z,99934.00
2022-08-20T11:10:35.167Z,99923.88
2022-08-20T11:13:04.893Z,99917.59
2022-08-20T11:15:35.708Z,99918.88
2022-08-20T11:18:04.619Z,99925.97
2022-08-20T11:20:32.208Z,99902.88
2022-08-20T11:23:00.192Z,99914.56
2022-08-20T11:25:29.571Z,99929.69
2022-08-20T11:27:57.820Z,99928.53
2022-08-20T11:30:31.072Z,99917.44
2022-08-20T11:32:59.832Z,99925.34
2022-08-20T11:35:49.523Z,99921.47
2022-08-20T11:38:17.441Z,99911.34
2022-08-20T11:40:46.896Z,99906.97
2022-08-20T11:43:17.003Z,99914.84
2022-08-20T11:45:56.386Z,99915.03
2022-08-20T11:48:24.259Z,99920.06
2022-08-20T11:50:51.873Z,99915.38
2022-08-20T11:53:19.242Z,99917.28
2022-08-20T11:55:47.892Z,99905.09
2022-08-20T11:58:15.503Z,99896.03
2022-08-20T12:00:42.848Z,99920.22
2022-08-20T12:03:11.627Z,99897.00
2022-08-20T12:05:41.689Z,99892.59
2022-08-20T12:08:09.304Z,99905.44
2022-08-20T12:10:37.441Z,99905.88
2022-08-20T12:13:06.850Z,99905.72
2022-08-20T12:15:37.621Z,99904.59
2022-08-20T12:18:09.115Z,99911.50
2022-08-20T12:20:37.891Z,99888.94
2022-08-20T12:23:05.563Z,99903.00
2022-08-20T12:25:33.714Z,99893.94
2022-08-20T12:28:01.090Z,99905.63
2022-08-20T12:30:28.503Z,99894.16
2022-08-20T12:32:56.130Z,99911.72
2022-08-20T12:35:24.058Z,99913.31
2022-08-20T12:37:51.391Z,99924.22
2022-08-20T12:40:32.377Z,99909.16
2022-08-20T12:43:02.502Z,99935.81
2022-08-20T12:45:30.489Z,99925.44
2022-08-20T12:48:09.999Z,99917.22
2022-08-20T12:50:39.605Z,99934.16
2022-08-20T12:53:07.362Z,99925.72
2022-08-20T12:55:34.747Z,99910.22
2022-08-20T12:58:04.474Z,99928.28
2022-08-20T13:00:35.149Z,99943.56
2022-08-20T13:03:04.500Z,99936.19
2022-08-20T13:05:33.100Z,99949.22
2022-08-20T13:08:00.492Z,99965.63
2022-08-20T13:10:33.396Z,99931.50
2022-08-20T13:13:02.910Z,99946.03
2022-08-20T13:15:32.042Z,99951.97
2022-08-20T13:18:02.036Z,99943.63
2022-08-20T13:20:33.962Z,99954.53
2022-08-20T13:23:04.385Z,99949.03
2022-08-20T13:25:33.139Z,99931.41
2022-08-20T13:28:03.960Z,99935.41
2022-08-20T13:30:33.816Z,99952.78
2022-08-20T13:33:01.584Z,99942.56
2022-08-20T13:35:29.291Z,99944.44
2022-08-20T13:37:56.673Z,99926.84
2022-08-20T13:40:24.197Z,99935.09
2022-08-20T13:42:51.436Z,99913.84
2022-08-20T13:45:18.827Z,99920.38
2022-08-20T13:47:46.484Z,99921.69
2022-08-20T13:50:18.418Z,99940.47
2022-08-20T13:52:55.518Z,99945.13
2022-08-20T13:55:25.939Z,99949.94
2022-08-20T13:57:54.294Z,99936.72
2022-08-20T14:00:31.766Z,99950.47
2022-08-20T14:03:01.265Z,99949.88
2022-08-20T14:05:29.475Z,99926.16
2022-08-20T14:08:04.152Z,99951.66
2022-08-20T14:10:33.073Z,99936.41
2022-08-20T14:13:00.512Z,99940.00
2022-08-20T14:15:27.772Z,99930.06
2022-08-20T14:17:56.717Z,99914.53
2022-08-20T14:20:29.273Z,99926.53
2022-08-20T14:23:00.796Z,99937.78
2022-08-20T14:25:28.587Z,99944.44
2022-08-20T14:27:56.480Z,99942.72
2022-08-20T14:30:27.866Z,99968.50
2022-08-20T14:32:55.549Z,99974.09
2022-08-20T14:35:23.230Z,99961.78
2022-08-20T14:37:52.862Z,99965.72
2022-08-20T14:40:21.905Z,99961.38
2022-08-20T14:42:51.733Z,99960.56
2022-08-20T14:45:20.909Z,99976.31
2022-08-20T14:47:54.606Z,99965.31
2022-08-20T14:50:26.548Z,99967.47
2022-08-20T14:52:54.899Z,99949.34
2022-08-20T14:55:25.130Z,99961.88
2022-08-20T14:57:53.366Z,99949.69
2022-08-20T15:00:27.740Z,99947.06
2022-08-20T15:02:55.531Z,99946.38
2022-08-20T15:05:23.790Z,99943.56
2022-08-20T15:07:53.939Z,99943.28
2022-08-20T15:10:32.002Z,99943.38
2022-08-20T15:13:00.410Z,99938.94
2022-08-20T15:15:28.440Z,99933.66
2022-08-20T15:18:00.373Z,99952.78
2022-08-20T15:20:31.227Z,99944.69
2022-08-20T15:22:59.413Z,99963.19
2022-08-20T15:25:36.950Z,99965.28
2022-08-20T15:28:08.398Z,99972.22
2022-08-20T15:30:38.053Z,99984.06
2022-08-20T15:33:05.825Z,99970.31
2022-08-20T15:35:33.282Z,99981.19
2022-08-20T15:38:01.014Z,99968.66
2022-08-20T15:40:32.133Z,99950.50
2022-08-20T15:43:01.149Z,99965.50
2022-08-20T15:45:29.242Z,99963.66
2022-08-20T15:48:22.940Z,99981.31
2022-08-20T15:50:53.530Z,99994.34
2022-08-20T15:53:56.707Z,99993.00
2022-08-20T15:56:23.866Z,99994.00
2022-08-20T15:59:29.445Z,99990.22
2022-08-20T16:02:34.072Z,99976.22
2022-08-20T16:05:05.047Z,99981.47
2022-08-20T16:08:06.598Z,99982.44
2022-08-20T16:11:00.043Z,99988.72
2022-08-20T16:13:41.432Z,99980.13
2022-08-20T16:16:16.690Z,99967.47
2022-08-20T16:18:48.004Z,99985.34
2022-08-20T16:21:19.002Z,99982.63
2022-08-20T16:23:46.359Z,99976.66
2022-08-20T16:26:28.528Z,99978.91
2022-08-20T16:29:19.058Z,99965.81
2022-08-20T16:31:53.927Z,99968.41
2022-08-20T16:34:55.300Z,99966.66
2022-08-20T16:37:36.229Z,99969.34
2022-08-20T16:40:19.534Z,99965.66
2022-08-20T16:42:51.392Z,99973.66
2022-08-20T16:45:29.591Z,99981.59
2022-08-20T16:48:03.258Z,99980.31
2022-08-20T16:50:45.658Z,99965.22
2022-08-20T16:53:20.620Z,99984.72
2022-08-20T16:55:49.149Z,99991.84
2022-08-20T16:58:16.953Z,99982.66
2022-08-20T17:00:45.530Z,99977.53
2022-08-20T17:03:33.555Z,99974.09
2022-08-20T17:06:26.817Z,99998.28
2022-08-20T17:08:55.206Z,100003.09
2022-08-20T17:11:32.719Z,100002.75
2022-08-20T17:14:18.879Z,99996.78
2022-08-20T17:16:49.543Z,100004.06
2022-08-20T17:19:28.843Z,100005.47
2022-08-20T17:22:07.321Z,99996.03
2022-08-20T17:24:36.255Z,99992.81
2022-08-20T17:27:10.550Z,99991.84
2022-08-20T17:29:51.996Z,99986.00
2022-08-20T17:32:26.056Z,99999.84
2022-08-20T17:34:57.195Z,99988.28
2022-08-20T17:37:40.657Z,99990.41
2022-08-20T17:40:16.136Z,100002.22
2022-08-20T17:43:10.106Z,100005.09
2022-08-20T17:45:45.348Z,100001.16
2022-08-20T17:48:15.965Z,99999.66
2022-08-20T17:50:44.672Z,100007.41
2022-08-20T17:53:29.673Z,100013.72
2022-08-20T17:56:13.838Z,100016.41
2022-08-20T17:58:54.350Z,100014.47
2022-08-20T18:01:24.173Z,100015.06
2022-08-20T18:03:53.341Z,100010.91
2022-08-20T18:06:34.454Z,100004.56
2022-08-20T18:09:24.477Z,100008.69
2022-08-20T18:12:00.767Z,100001.56
2022-08-20T18:14:52.989Z,100020.59
2022-08-20T18:17:47.582Z,100008.53
2022-08-20T18:21:03.032Z,100014.16
2022-08-20T18:23:36.632Z,100021.84
2022-08-20T18:26:19.447Z,100031.13
2022-08-20T18:28:52.466Z,100035.38
2022-08-20T18:31:46.407Z,100045.41
2022-08-20T18:34:43.479Z,100035.06
2022-08-20T18:37:31.198Z,100039.25
2022-08-20T18:40:15.565Z,100041.91
2022-08-20T18:42:43.503Z,100037.69
2022-08-20T18:45:10.907Z,100040.09
2022-08-20T18:47:45.258Z,100045.28
2022-08-20T18:50:18.347Z,100024.13
2022-08-20T18:52:49.413Z,100016.63
2022-08-20T18:55:31.198Z,100026.19
2022-08-20T18:58:06.262Z,100027.91
2022-08-20T19:00:40.148Z,100027.03
2022-08-20T19:03:07.466Z,100033.53
2022-08-20T19:06:03.181Z,100028.41
2022-08-20T19:08:48.095Z,100026.34
2022-08-20T19:11:47.954Z,100015.75
2022-08-20T19:14:46.364Z,100020.69
2022-08-20T19:17:25.530Z,100016.13
2022-08-20T19:20:06.969Z,100010.91
2022-08-20T19:22:35.619Z,100004.47
2022-08-20T19:25:02.938Z,100002.66
2022-08-20T19:27:30.696Z,99994.44
2022-08-20T19:29:58.455Z,100005.75
2022-08-20T19:32:29.551Z,100012.69
2022-08-20T19:34:58.595Z,100011.56
2022-08-20T19:37:39.947Z,100004.09
2022-08-20T19:40:28.324Z,99999.25
2022-08-20T19:42:59.702Z,99989.50
2022-08-20T19:45:29.728Z,99985.78
2022-08-20T19:48:30.544Z,99964.78
2022-08-20T19:51:16.707Z,99972.38
2022-08-20T19:53:48.817Z,99982.13
2022-08-20T19:56:22.397Z,99987.84
2022-08-20T19:59:06.061Z,99993.22
2022-08-20T20:01:34.605Z,99989.81
2022-08-20T20:04:05.337Z,99992.97
2022-08-20T20:06:37.018Z,99986.44
2022-08-20T20:09:13.607Z,99999.66
2022-08-20T20:11:45.880Z,99996.94
2022-08-20T20:14:17.636Z,99988.88
2022-08-20T20:16:50.477Z,100003.88
2022-08-20T20:19:28.108Z,100015.75
2022-08-20T20:22:19.984Z,100019.19
2022-08-20T20:25:17.310Z,100010.44
2022-08-20T20:27:49.680Z,100013.03
2022-08-20T20:30:27.108Z,100007.72
2022-08-20T20:32:57.069Z,100002.06
2022-08-20T20:35:34.347Z,100016.41
2022-08-20T20:38:08.333Z,100012.41
2022-08-20T20:40:50.952Z,100009.28
2022-08-20T20:43:26.150Z,100009.75
2022-08-20T20:46:06.502Z,100010.47
2022-08-20T20:49:08.791Z,100009.44
2022-08-20T20:51:40.130Z,100018.69
2022-08-20T20:54:24.626Z,100006.97
2022-08-20T20:57:02.020Z,100012.22
2022-08-20T20:59:32.368Z,100006.84
2022-08-20T21:02:00.247Z,99995.59
2022-08-20T21:04:27.910Z,99998.16
2022-08-20T21:06:58.617Z,99999.69
2022-08-20T21:09:26.950Z,99992.59
2022-08-20T21:11:54.177Z,99993.81
2022-08-20T21:14:21.623Z,99997.16
2022-08-20T21:16:49.081Z,99995.13
2022-08-20T21:19:17.007Z,99990.03
2022-08-20T21:21:44.318Z,99985.84
2022-08-20T21:24:11.807Z,99973.28
2022-08-20T21:26:39.797Z,99972.47
2022-08-20T21:29:09.667Z,99971.56
2022-08-20T21:31:43.568Z,99968.94
2022-08-20T21:34:15.404Z,99970.25
2022-08-20T21:36:43.690Z,99982.22
2022-08-20T21:39:11.497Z,99973.75
2022-08-20T21:41:42.768Z,99965.13
2022-08-20T21:44:18.175Z,99955.19
2022-08-20T21:46:50.312Z,99948.50
2022-08-20T21:49:19.637Z,99946.38
2022-08-20T21:51:48.060Z,99945.56
2022-08-20T21:54:15.637Z,99951.81
2022-08-20T21:56:49.606Z,99947.56
2022-08-20T21:59:17.694Z,99950.59
2022-08-20T22:01:45.192Z,99966.41
2022-08-20T22:04:12.499Z,99973.84
2022-08-20T22:06:39.864Z,99980.13
2022-08-20T22:09:07.266Z,99982.25
2022-08-20T22:11:35.259Z,99987.97
2022-08-20T22:14:06.095Z,99974.75
2022-08-20T22:16:33.541Z,99968.94
2022-08-20T22:28:03.669Z,99975.53
2022-08-20T22:30:31.632Z,99975.78
2022-08-20T22:33:04.799Z,99977.22
2022-08-20T22:35:34.038Z,99983.66
2022-08-20T22:38:01.642Z,99988.41
2022-08-20T22:40:28.941Z,99980.97
2022-08-20T22:42:56.613Z,99976.59
2022-08-20T22:45:24.241Z,99973.75
2022-08-20T22:47:51.542Z,99976.38
2022-08-20T22:50:22.812Z,99985.47
2022-08-20T22:52:51.124Z,99978.97
2022-08-20T22:55:18.911Z,99965.41
2022-08-20T22:57:47.979Z,99963.69
2022-08-20T23:00:17.608Z,99961.34
2022-08-20T23:02:51.462Z,99956.06
2022-08-20T23:05:21.862Z,99962.81
2022-08-20T23:07:54.025Z,99965.34
2022-08-20T23:10:23.743Z,99949.84
2022-08-20T23:12:50.919Z,99950.50
2022-08-20T23:15:19.043Z,99950.41
2022-08-20T23:17:47.093Z,99947.22
2022-08-20T23:20:18.511Z,99948.16
2022-08-20T23:22:45.569Z,99949.06
2022-08-20T23:25:13.938Z,99936.66
2022-08-20T23:27:45.471Z,99943.25
2022-08-20T23:30:14.110Z,99947.16
2022-08-20T23:32:41.779Z,99945.81
2022-08-20T23:35:09.951Z,99930.16
2022-08-20T23:59:09.325Z,99933.59
